Time;durP1;ratioP1;P1;durP2;ratioP2;P2;SDS_P1;SDS_P2;PMS_P1;PMS_P2;Temp;Humidity;BMP_temperature;BMP_pressure;BME280_temperature;BME280_humidity;BME280_pressure;Samples;Min_cycle;Max_cycle;Signal;HPM_P1;HPM_P2
2021/12/17 00:07:10;;;;;;;5.57;1.85;;;23.90;82.00;;;;;;5073163;28;20024;-57
2021/12/17 00:09:39;;;;;;;3.22;1.55;;;23.90;82.20;;;;;;5073168;28;20020;-58
2021/12/17 00:12:11;;;;;;;3.00;1.05;;;23.90;82.20;;;;;;5072593;28;20024;-54
2021/12/17 00:14:42;;;;;;;5.63;1.67;;;24.00;82.50;;;;;;5071296;28;20035;-60
2021/12/17 00:17:15;;;;;;;5.20;1.60;;;24.00;82.20;;;;;;5072607;28;20104;-56
2021/12/17 00:49:58;;;;;;;4.72;1.77;;;23.90;82.90;;;;;;5072851;28;20029;-57
2021/12/17 00:52:31;;;;;;;4.97;1.35;;;23.90;83.10;;;;;;5072393;28;20024;-54
2021/12/17 00:54:59;;;;;;;7.97;2.45;;;23.90;82.70;;;;;;5071020;28;20044;-56
2021/12/17 00:57:34;;;;;;;8.95;2.38;;;23.90;82.40;;;;;;5070878;28;20031;-57
2021/12/17 01:00:01;;;;;;;3.03;1.25;;;23.90;82.30;;;;;;5072080;28;20089;-57
2021/12/17 01:02:32;;;;;;;5.10;1.50;;;23.90;83.60;;;;;;5070932;28;20028;-54
2021/12/17 01:05:03;;;;;;;5.63;1.77;;;23.90;83.90;;;;;;5072374;28;20040;-57
2021/12/17 01:07:35;;;;;;;3.65;1.60;;;23.90;83.30;;;;;;5070824;28;20082;-60
2021/12/17 01:10:07;;;;;;;6.90;1.67;;;23.90;83.80;;;;;;5072416;28;20082;-60
2021/12/17 01:12:34;;;;;;;7.75;2.08;;;23.90;83.80;;;;;;5072294;28;20028;-56
2021/12/17 01:15:03;;;;;;;6.20;1.60;;;23.90;83.00;;;;;;5072644;28;20039;-57
2021/12/17 01:17:33;;;;;;;5.53;1.65;;;24.00;83.20;;;;;;5070517;28;20108;-59
2021/12/17 01:25:52;;;;;;;9.38;2.30;;;24.10;83.50;;;;;;5069230;28;20130;-57
2021/12/17 01:36:25;;;;;;;6.55;2.08;;;24.10;82.50;;;;;;5072117;28;20432;-52
2021/12/17 01:39:56;;;;;;;5.32;1.63;;;24.20;82.70;;;;;;5071891;28;20120;-61
2021/12/17 01:44:15;;;;;;;5.43;2.05;;;24.20;82.00;;;;;;5075313;28;20065;-55
2021/12/17 01:46:44;;;;;;;5.97;1.63;;;24.20;82.50;;;;;;5075490;28;20027;-51
2021/12/17 02:00:13;;;;;;;4.00;1.67;;;24.10;83.80;;;;;;5075688;28;20456;-59
2021/12/17 02:02:50;;;;;;;9.60;2.05;;;24.10;83.80;;;;;;5075139;28;20021;-58
2021/12/17 02:05:18;;;;;;;4.65;1.67;;;24.20;82.60;;;;;;5058059;28;20042;-57
2021/12/17 02:07:48;;;;;;;5.18;2.10;;;24.20;83.10;;;;;;5074155;28;20472;-60
2021/12/17 02:10:53;;;;;;;6.07;2.17;;;24.20;82.90;;;;;;5074907;28;20039;-58
2021/12/17 02:21:43;;;;;;;9.27;1.77;;;24.40;82.00;;;;;;5075719;28;20035;-53
2021/12/17 02:32:09;;;;;;;8.02;2.35;;;24.40;82.70;;;;;;5074160;28;20016;-54
2021/12/17 02:37:21;;;;;;;8.50;2.08;;;24.50;81.20;;;;;;5075182;28;20501;-55
2021/12/17 02:48:16;;;;;;;3.05;1.63;;;24.70;80.10;;;;;;5075030;28;20089;-54
2021/12/17 02:50:56;;;;;;;3.80;1.60;;;24.70;81.40;;;;;;5074181;28;20051;-56
2021/12/17 02:53:25;;;;;;;3.15;1.48;;;24.80;81.00;;;;;;5074345;28;20133;-52
2021/12/17 02:55:56;;;;;;;3.53;1.33;;;24.90;81.40;;;;;;5073728;28;20029;-57
2021/12/17 02:58:26;;;;;;;4.55;1.73;;;24.90;80.50;;;;;;5074466;28;20029;-57
2021/12/17 03:00:54;;;;;;;3.53;1.42;;;24.90;81.10;;;;;;5073760;28;20037;-55
2021/12/17 03:03:25;;;;;;;5.60;1.60;;;24.90;81.10;;;;;;5073092;28;20078;-56
2021/12/17 03:05:53;;;;;;;2.63;1.07;;;24.90;81.20;;;;;;5074157;28;20471;-53
2021/12/17 03:08:21;;;;;;;5.93;1.48;;;24.90;80.80;;;;;;5073824;28;20108;-56
2021/12/17 03:10:50;;;;;;;4.50;1.70;;;25.00;79.90;;;;;;5074118;28;20040;-52
2021/12/17 03:13:22;;;;;;;2.72;1.35;;;25.00;78.80;;;;;;5073916;28;20024;-56
2021/12/17 03:15:58;;;;;;;4.50;1.58;;;25.10;80.20;;;;;;5073751;28;20159;-49
2021/12/17 03:18:52;;;;;;;3.22;1.15;;;25.10;79.40;;;;;;5073895;28;20028;-53
2021/12/17 03:23:58;;;;;;;3.97;1.20;;;25.10;79.40;;;;;;5074615;28;20035;-59
2021/12/17 03:26:28;;;;;;;4.60;2.05;;;25.10;79.30;;;;;;5073898;28;20021;-57
2021/12/17 03:28:59;;;;;;;3.45;1.23;;;25.00;79.80;;;;;;5074088;28;20390;-58
2021/12/17 03:31:26;;;;;;;5.53;1.77;;;25.10;78.00;;;;;;5073848;28;20050;-56
2021/12/17 03:34:11;;;;;;;3.28;1.85;;;25.10;79.50;;;;;;5073781;28;20496;-52
2021/12/17 03:36:39;;;;;;;5.30;2.38;;;25.10;80.00;;;;;;5073790;28;20467;-58
2021/12/17 03:39:06;;;;;;;2.45;1.20;;;25.00;80.30;;;;;;5073906;28;20171;-53
2021/12/17 03:41:38;;;;;;;4.30;1.95;;;25.00;81.20;;;;;;5073617;28;20031;-56
2021/12/17 03:44:08;;;;;;;3.38;1.40;;;25.00;80.50;;;;;;5073661;28;20383;-55
2021/12/17 03:46:36;;;;;;;14.25;2.22;;;25.10;80.80;;;;;;5072692;28;20031;-48
2021/12/17 03:49:04;;;;;;;3.63;1.60;;;25.10;79.20;;;;;;5072114;28;20024;-58
2021/12/17 03:51:35;;;;;;;2.88;1.67;;;25.10;80.90;;;;;;5073559;28;20036;-61
2021/12/17 03:54:03;;;;;;;3.08;1.10;;;25.00;81.20;;;;;;5073117;28;20060;-49
2021/12/17 03:56:31;;;;;;;4.60;1.60;;;25.10;80.90;;;;;;5073527;28;20038;-58
2021/12/17 03:58:58;;;;;;;4.63;1.60;;;25.10;79.90;;;;;;5073068;28;20052;-56
2021/12/17 04:01:28;;;;;;;4.28;1.40;;;25.20;80.10;;;;;;5073084;28;20053;-55
2021/12/17 04:03:55;;;;;;;6.55;1.83;;;25.20;80.00;;;;;;5072939;28;20032;-58
2021/12/17 04:06:23;;;;;;;4.65;1.67;;;25.30;78.50;;;;;;5072199;28;20441;-58
2021/12/17 04:08:50;;;;;;;5.57;1.63;;;25.30;78.20;;;;;;5072726;28;20485;-53
2021/12/17 04:11:19;;;;;;;3.15;1.52;;;25.30;78.40;;;;;;5073521;28;20016;-56
2021/12/17 04:13:57;;;;;;;7.63;1.58;;;25.20;78.10;;;;;;5073340;28;20031;-60
2021/12/17 04:16:29;;;;;;;3.28;1.42;;;25.20;78.70;;;;;;5073053;28;20036;-54
2021/12/17 04:18:57;;;;;;;10.85;1.73;;;25.20;78.40;;;;;;5073123;28;20035;-54
2021/12/17 04:21:25;;;;;;;10.40;2.08;;;25.20;78.70;;;;;;5073544;28;20525;-57
2021/12/17 04:23:56;;;;;;;3.63;1.67;;;25.20;78.30;;;;;;5072792;28;20081;-53
2021/12/17 04:26:26;;;;;;;5.22;1.58;;;25.20;79.80;;;;;;5073011;28;20723;-59
2021/12/17 04:28:54;;;;;;;3.45;1.55;;;25.10;79.80;;;;;;5072845;28;20516;-57
2021/12/17 04:31:26;;;;;;;5.45;1.88;;;25.10;79.80;;;;;;5072429;28;20024;-57
2021/12/17 04:33:53;;;;;;;4.22;1.20;;;25.10;79.20;;;;;;5072453;28;20122;-56
2021/12/17 04:36:27;;;;;;;4.18;1.80;;;25.10;80.00;;;;;;5072596;28;20027;-54
2021/12/17 04:38:55;;;;;;;2.67;1.33;;;25.10;79.60;;;;;;5072323;28;20031;-59
2021/12/17 04:44:08;;;;;;;1.92;1.13;;;25.20;79.10;;;;;;5072100;28;20451;-56
2021/12/17 04:46:49;;;;;;;2.90;1.25;;;25.10;79.80;;;;;;5072423;28;20025;-56
2021/12/17 04:57:36;;;;;;;5.07;1.52;;;25.20;79.60;;;;;;5072250;28;20055;-54
2021/12/17 05:00:18;;;;;;;3.72;1.48;;;25.20;79.30;;;;;;5072280;28;20037;-56
2021/12/17 05:02:49;;;;;;;6.72;2.42;;;25.20;79.40;;;;;;5072514;28;20032;-50
2021/12/17 05:05:19;;;;;;;5.07;1.73;;;25.20;79.70;;;;;;5071258;28;20483;-54
2021/12/17 05:07:53;;;;;;;3.42;1.38;;;25.20;79.40;;;;;;5072268;28;20455;-57
2021/12/17 05:10:31;;;;;;;4.90;1.67;;;25.20;78.50;;;;;;5072160;28;20021;-55
2021/12/17 05:18:33;;;;;;;6.78;1.92;;;25.20;80.60;;;;;;5074983;28;20425;-52
2021/12/17 05:21:08;;;;;;;3.42;1.52;;;25.00;81.20;;;;;;5076389;28;20036;-60
2021/12/17 05:23:41;;;;;;;4.05;1.40;;;25.10;80.50;;;;;;5075174;28;20095;-53
2021/12/17 05:26:15;;;;;;;2.90;1.42;;;25.10;80.50;;;;;;5076144;28;20025;-56
2021/12/17 05:28:42;;;;;;;5.03;1.60;;;25.20;79.80;;;;;;5075970;28;20112;-57
2021/12/17 05:31:10;;;;;;;4.57;1.58;;;25.20;80.80;;;;;;5075685;28;20020;-55
2021/12/17 05:33:38;;;;;;;3.88;1.80;;;25.20;80.30;;;;;;5076042;28;20093;-54
2021/12/17 05:36:05;;;;;;;5.20;1.52;;;25.20;81.20;;;;;;5075955;28;20021;-60
2021/12/17 05:38:33;;;;;;;5.88;1.70;;;25.10;79.50;;;;;;5075847;28;20016;-58
2021/12/17 05:41:01;;;;;;;6.88;1.50;;;25.20;79.40;;;;;;5075699;28;20123;-62
2021/12/17 05:43:29;;;;;;;3.60;1.30;;;25.20;79.60;;;;;;5074656;28;20024;-53
2021/12/17 05:48:27;;;;;;;4.15;1.70;;;25.10;80.20;;;;;;5075654;28;20111;-55
2021/12/17 05:50:59;;;;;;;3.08;1.30;;;25.20;80.50;;;;;;5075636;28;20040;-58
2021/12/17 05:53:28;;;;;;;3.08;1.23;;;25.20;80.50;;;;;;5075149;28;20048;-54
2021/12/17 05:55:57;;;;;;;4.35;1.73;;;25.10;80.80;;;;;;5075644;28;20062;-55
2021/12/17 05:58:26;;;;;;;5.55;1.60;;;25.10;80.20;;;;;;5075339;28;20025;-53
2021/12/17 06:00:54;;;;;;;5.65;1.75;;;25.10;79.20;;;;;;5075482;28;20024;-58
2021/12/17 06:03:23;;;;;;;5.15;1.48;;;25.10;79.70;;;;;;5074116;28;20028;-58
2021/12/17 06:05:51;;;;;;;3.10;1.35;;;25.10;80.70;;;;;;5075805;28;20031;-61
2021/12/17 06:08:18;;;;;;;2.97;1.50;;;25.00;80.40;;;;;;5075544;28;20074;-63
2021/12/17 06:10:45;;;;;;;4.35;1.85;;;25.00;81.60;;;;;;5075898;28;20074;-62
2021/12/17 06:13:13;;;;;;;6.50;1.75;;;25.00;81.10;;;;;;5075734;28;20401;-59
2021/12/17 06:15:40;;;;;;;4.18;1.63;;;24.90;81.70;;;;;;5074330;28;20021;-57
2021/12/17 06:18:07;;;;;;;7.20;2.13;;;25.00;81.50;;;;;;5075033;28;20463;-59
2021/12/17 06:20:35;;;;;;;4.70;1.60;;;25.00;81.10;;;;;;5075359;28;20486;-63
2021/12/17 06:23:02;;;;;;;3.97;1.70;;;25.00;81.80;;;;;;5074227;28;20096;-58
2021/12/17 06:25:30;;;;;;;4.20;1.30;;;25.00;81.70;;;;;;5075285;28;20028;-62
2021/12/17 06:27:57;;;;;;;5.20;1.80;;;24.90;81.90;;;;;;5074881;28;20013;-62
2021/12/17 06:30:25;;;;;;;4.32;1.63;;;24.90;81.80;;;;;;5073544;28;20374;-61
2021/12/17 06:32:52;;;;;;;4.57;1.50;;;24.90;82.10;;;;;;5075203;28;20020;-60
2021/12/17 06:35:20;;;;;;;6.95;2.03;;;24.90;81.60;;;;;;5075062;28;20483;-57
2021/12/17 06:37:47;;;;;;;6.30;1.73;;;24.90;82.00;;;;;;5075103;28;20028;-59
2021/12/17 06:40:15;;;;;;;3.75;1.70;;;24.90;82.20;;;;;;5075223;28;20039;-60
2021/12/17 06:42:44;;;;;;;5.10;1.20;;;24.80;82.60;;;;;;5074675;28;20071;-56
2021/12/17 06:45:20;;;;;;;2.50;1.30;;;24.80;82.80;;;;;;5074161;28;20103;-59
2021/12/17 06:47:55;;;;;;;5.05;1.63;;;24.80;82.70;;;;;;5074837;28;20032;-53
2021/12/17 06:56:44;;;;;;;7.07;1.58;;;24.70;83.10;;;;;;5074359;28;20522;-55
2021/12/17 07:07:10;;;;;;;3.05;1.52;;;24.70;83.60;;;;;;5074939;28;20387;-53
2021/12/17 07:28:49;;;;;;;3.55;1.33;;;24.50;84.20;;;;;;5074332;28;20118;-53
2021/12/17 07:32:14;;;;;;;3.80;1.52;;;24.50;84.30;;;;;;5073531;28;20029;-58
2021/12/17 07:34:04;;;;;;;3.50;1.38;;;24.50;84.40;;;;;;5073277;28;20052;-58
2021/12/17 07:39:19;;;;;;;3.20;1.40;;;24.50;84.80;;;;;;5052027;28;20110;-57
2021/12/17 07:41:46;;;;;;;3.60;1.33;;;24.40;84.70;;;;;;5073164;28;20016;-52
2021/12/17 07:44:14;;;;;;;4.80;1.83;;;24.40;84.90;;;;;;5073570;28;20056;-60
2021/12/17 07:46:41;;;;;;;3.72;1.50;;;24.40;85.10;;;;;;5072527;28;20025;-57
2021/12/17 07:49:09;;;;;;;4.13;1.40;;;24.40;85.20;;;;;;5072734;28;20024;-57
2021/12/17 07:51:36;;;;;;;4.65;1.67;;;24.40;85.30;;;;;;5073614;28;20020;-52
2021/12/17 07:54:04;;;;;;;2.72;1.48;;;24.30;85.00;;;;;;5073250;28;20510;-57
2021/12/17 07:56:37;;;;;;;5.15;1.80;;;24.30;85.30;;;;;;5073466;28;20036;-58
2021/12/17 07:59:06;;;;;;;3.92;1.17;;;24.30;85.30;;;;;;5073080;28;20079;-57
2021/12/17 08:01:35;;;;;;;3.33;1.27;;;24.30;85.40;;;;;;5073203;28;20048;-53
2021/12/17 08:04:04;;;;;;;5.65;1.63;;;24.30;85.50;;;;;;5071729;28;20032;-56
2021/12/17 08:06:32;;;;;;;5.25;1.70;;;24.30;85.30;;;;;;5073220;28;20027;-56
2021/12/17 08:09:00;;;;;;;4.55;1.70;;;24.30;85.60;;;;;;5073492;28;20036;-56
2021/12/17 08:11:27;;;;;;;5.00;1.10;;;24.30;85.80;;;;;;5072886;28;20073;-59
2021/12/17 08:13:56;;;;;;;2.53;1.20;;;24.30;85.60;;;;;;5072902;28;20124;-56
2021/12/17 08:27:10;;;;;;;4.47;1.50;;;24.20;86.00;;;;;;5073228;28;20483;-54
2021/12/17 08:30:06;;;;;;;3.83;1.20;;;24.20;86.10;;;;;;5073105;28;20433;-55
2021/12/17 08:32:34;;;;;;;6.53;1.40;;;24.10;86.00;;;;;;5072822;28;20035;-58
2021/12/17 08:35:02;;;;;;;3.25;1.30;;;24.10;86.20;;;;;;5071757;28;20025;-60
2021/12/17 08:37:30;;;;;;;5.57;1.65;;;24.10;86.20;;;;;;5072758;28;20395;-59
2021/12/17 08:39:58;;;;;;;2.15;1.23;;;24.10;86.20;;;;;;5072586;28;20070;-55
2021/12/17 08:42:26;;;;;;;4.30;1.80;;;24.10;86.30;;;;;;5072728;28;20067;-58
2021/12/17 08:44:55;;;;;;;9.10;2.28;;;24.00;86.30;;;;;;5072461;28;20035;-59
2021/12/17 08:47:22;;;;;;;3.97;1.33;;;24.00;86.40;;;;;;5072555;28;20416;-54
2021/12/17 08:49:51;;;;;;;4.88;1.70;;;24.00;86.50;;;;;;5072654;28;20103;-60
2021/12/17 08:52:18;;;;;;;3.03;1.30;;;24.00;86.50;;;;;;5072296;28;20031;-57
2021/12/17 08:54:45;;;;;;;5.75;2.17;;;23.90;86.50;;;;;;5072724;28;20049;-54
2021/12/17 08:57:13;;;;;;;3.97;1.73;;;24.00;86.80;;;;;;5072751;28;20045;-58
2021/12/17 08:59:40;;;;;;;3.35;1.55;;;23.90;86.90;;;;;;5072642;28;20386;-55
2021/12/17 09:02:08;;;;;;;4.05;1.30;;;23.90;86.90;;;;;;5072712;28;20028;-57
2021/12/17 09:04:35;;;;;;;4.90;1.90;;;23.90;86.90;;;;;;5072922;28;20020;-57
2021/12/17 09:07:03;;;;;;;3.78;1.45;;;23.90;86.90;;;;;;5072580;28;20043;-56
2021/12/17 09:09:30;;;;;;;4.47;1.10;;;23.90;87.10;;;;;;5072226;28;20099;-50
2021/12/17 09:11:58;;;;;;;5.15;1.63;;;23.80;87.30;;;;;;5072392;28;20456;-60
2021/12/17 09:14:25;;;;;;;2.58;1.20;;;23.80;87.30;;;;;;5072891;28;20037;-58
2021/12/17 09:16:53;;;;;;;2.80;1.50;;;23.80;87.20;;;;;;5072737;28;20073;-58
2021/12/17 09:19:20;;;;;;;4.50;1.88;;;23.80;87.40;;;;;;5072259;28;20040;-60
2021/12/17 09:21:48;;;;;;;3.92;1.70;;;23.80;87.30;;;;;;5072365;28;20103;-56
2021/12/17 09:24:16;;;;;;;4.55;1.67;;;23.80;87.60;;;;;;5071974;28;20371;-51
2021/12/17 09:26:43;;;;;;;2.47;1.25;;;23.70;87.60;;;;;;5072558;28;20027;-51
2021/12/17 09:29:11;;;;;;;4.60;1.65;;;23.70;87.60;;;;;;5071312;28;20036;-53
2021/12/17 09:31:38;;;;;;;4.20;1.52;;;23.70;87.70;;;;;;5072973;28;20027;-52
2021/12/17 09:34:06;;;;;;;2.95;1.17;;;23.70;87.70;;;;;;5072384;28;20029;-61
2021/12/17 09:36:33;;;;;;;2.63;1.25;;;23.70;87.80;;;;;;5072488;28;20104;-57
2021/12/17 09:39:01;;;;;;;3.85;1.45;;;23.70;87.90;;;;;;5072842;28;20028;-53
2021/12/17 09:41:28;;;;;;;3.75;1.48;;;23.70;88.00;;;;;;5072721;28;20037;-54
2021/12/17 09:43:56;;;;;;;4.35;1.40;;;23.60;88.00;;;;;;5072322;28;20100;-54
2021/12/17 09:46:24;;;;;;;2.33;1.52;;;23.60;88.10;;;;;;5072000;28;20032;-57
2021/12/17 09:48:51;;;;;;;3.55;1.40;;;23.60;88.00;;;;;;5072344;28;20024;-54
2021/12/17 09:51:20;;;;;;;4.03;1.50;;;23.60;88.10;;;;;;5072454;28;20086;-57
2021/12/17 09:53:50;;;;;;;3.90;1.40;;;23.60;88.10;;;;;;5072321;28;20059;-60
2021/12/17 09:56:17;;;;;;;4.55;1.45;;;23.60;88.30;;;;;;5071495;28;20107;-62
2021/12/17 09:58:45;;;;;;;2.90;1.50;;;23.50;88.40;;;;;;5072541;28;20082;-59
2021/12/17 10:01:12;;;;;;;3.83;1.33;;;23.60;88.40;;;;;;5072393;28;20020;-54
2021/12/17 10:03:40;;;;;;;4.63;1.40;;;23.50;88.70;;;;;;5072172;28;20423;-55
2021/12/17 10:06:23;;;;;;;4.93;1.83;;;23.50;88.60;;;;;;5075824;28;20025;-54
2021/12/17 10:08:50;;;;;;;2.80;1.30;;;23.50;88.50;;;;;;5076112;28;20047;-59
2021/12/17 10:11:18;;;;;;;3.75;1.52;;;23.50;88.40;;;;;;5075980;28;20391;-58
2021/12/17 10:13:47;;;;;;;4.45;1.95;;;23.50;88.70;;;;;;5075800;28;20035;-55
2021/12/17 10:16:20;;;;;;;4.35;1.70;;;23.50;88.80;;;;;;5075952;28;20021;-61
2021/12/17 10:18:50;;;;;;;2.33;1.33;;;23.50;88.70;;;;;;5076071;28;20025;-50
2021/12/17 10:21:23;;;;;;;5.07;1.48;;;23.50;88.80;;;;;;5074686;28;20025;-58
2021/12/17 10:23:53;;;;;;;4.25;1.58;;;23.50;88.90;;;;;;5075837;28;20479;-47
2021/12/17 10:26:24;;;;;;;2.85;1.50;;;23.40;89.00;;;;;;5075953;28;20024;-52
2021/12/17 10:28:58;;;;;;;3.65;1.77;;;23.40;89.00;;;;;;5076047;28;20052;-59
2021/12/17 10:31:30;;;;;;;4.97;1.77;;;23.40;88.90;;;;;;5076108;28;20471;-53
2021/12/17 10:34:03;;;;;;;5.40;1.92;;;23.40;89.00;;;;;;5074219;28;20036;-51
2021/12/17 10:36:59;;;;;;;4.40;1.63;;;23.40;88.90;;;;;;5075465;28;20027;-57
2021/12/17 10:39:32;;;;;;;3.97;1.38;;;23.40;89.00;;;;;;5074326;28;20039;-58
2021/12/17 10:42:00;;;;;;;2.53;1.27;;;23.40;89.20;;;;;;5075205;28;20514;-59
2021/12/17 10:44:28;;;;;;;4.20;1.58;;;23.40;89.30;;;;;;5075354;28;20426;-58
2021/12/17 10:47:35;;;;;;;6.55;1.60;;;23.40;89.10;;;;;;5075445;28;20054;-58
2021/12/17 10:50:02;;;;;;;4.72;1.70;;;23.40;89.40;;;;;;5071909;28;20045;-51
2021/12/17 10:52:41;;;;;;;3.47;1.25;;;23.30;89.10;;;;;;5074842;28;20025;-61
2021/12/17 10:55:14;;;;;;;4.55;1.58;;;23.30;89.40;;;;;;5075087;28;20051;-55
2021/12/17 10:57:43;;;;;;;4.30;1.75;;;23.30;89.50;;;;;;5074663;28;20063;-56
2021/12/17 11:00:12;;;;;;;4.38;1.35;;;23.30;89.60;;;;;;5074872;28;20052;-58
2021/12/17 11:02:48;;;;;;;4.57;2.00;;;23.30;89.70;;;;;;5075102;28;20027;-58
2021/12/17 11:05:17;;;;;;;4.68;1.65;;;23.30;89.50;;;;;;5075118;28;20067;-59
2021/12/17 11:07:49;;;;;;;4.20;2.08;;;23.30;89.50;;;;;;5075171;28;20028;-58
2021/12/17 11:10:26;;;;;;;4.75;1.77;;;23.30;89.70;;;;;;5074501;28;20024;-57
2021/12/17 11:12:53;;;;;;;4.05;1.70;;;23.30;89.80;;;;;;5075213;28;20422;-59
2021/12/17 11:15:24;;;;;;;3.22;1.27;;;23.30;89.80;;;;;;5074940;28;20078;-59
2021/12/17 11:17:56;;;;;;;4.72;1.98;;;23.20;89.80;;;;;;5075100;28;20071;-59
2021/12/17 11:20:35;;;;;;;3.83;1.52;;;23.20;90.00;;;;;;5074794;28;20144;-57
2021/12/17 11:23:07;;;;;;;2.10;1.05;;;23.20;89.80;;;;;;5074881;28;20040;-56
2021/12/17 11:25:36;;;;;;;3.50;1.33;;;23.20;89.90;;;;;;5074043;28;20025;-59
2021/12/17 11:28:07;;;;;;;3.83;1.23;;;23.20;89.70;;;;;;5073819;28;20032;-53
2021/12/17 11:30:37;;;;;;;5.97;1.65;;;23.20;89.90;;;;;;5074747;28;20115;-56
2021/12/17 11:33:04;;;;;;;3.22;1.35;;;23.20;89.90;;;;;;5074601;28;20056;-49
2021/12/17 11:35:35;;;;;;;3.47;1.27;;;23.20;90.00;;;;;;5074433;28;20039;-51
2021/12/17 11:38:17;;;;;;;3.42;1.40;;;23.20;90.00;;;;;;5073056;28;20021;-57
2021/12/17 11:40:53;;;;;;;4.18;1.45;;;23.20;90.00;;;;;;5074154;28;20119;-52
2021/12/17 11:44:08;;;;;;;4.82;1.58;;;23.20;90.00;;;;;;5074002;28;20380;-58
2021/12/17 11:46:35;;;;;;;3.47;1.45;;;23.20;90.00;;;;;;5069886;28;20368;-51
2021/12/17 11:49:09;;;;;;;1.85;0.98;;;23.20;90.10;;;;;;5073953;28;20054;-53
2021/12/17 11:51:37;;;;;;;2.78;1.17;;;23.20;90.10;;;;;;5074355;28;20063;-54
2021/12/17 11:54:09;;;;;;;4.32;1.90;;;23.20;90.10;;;;;;5073518;28;20044;-52
2021/12/17 11:56:36;;;;;;;;;;;23.10;90.00;;;;;;5074426;28;20340;-54
2021/12/17 11:59:04;;;;;;;4.72;1.40;;;23.10;90.10;;;;;;5073823;28;19917;-59
2021/12/17 12:02:01;;;;;;;3.88;1.15;;;23.10;90.10;;;;;;5074111;28;20032;-59
2021/12/17 12:04:34;;;;;;;3.47;2.05;;;23.10;90.10;;;;;;5073865;28;20526;-57
2021/12/17 12:07:33;;;;;;;3.55;1.20;;;23.10;90.10;;;;;;5074104;28;20074;-51
2021/12/17 12:10:19;;;;;;;4.85;1.73;;;23.10;90.10;;;;;;5065340;28;20110;-59
2021/12/17 12:12:46;;;;;;;4.18;1.50;;;23.10;90.30;;;;;;5073587;28;20112;-49
2021/12/17 12:15:23;;;;;;;3.88;1.38;;;23.10;90.10;;;;;;5073349;28;20086;-57
2021/12/17 12:18:02;;;;;;;4.53;1.40;;;23.10;90.10;;;;;;5073633;28;20024;-58
2021/12/17 12:20:48;;;;;;;3.88;1.40;;;23.10;90.10;;;;;;5072269;28;20046;-54
2021/12/17 12:23:33;;;;;;;2.50;1.35;;;23.10;90.10;;;;;;5073462;28;20028;-55
2021/12/17 12:26:04;;;;;;;2.80;1.45;;;23.10;90.20;;;;;;5072824;28;20116;-53
2021/12/17 12:28:49;;;;;;;4.68;1.70;;;23.10;90.20;;;;;;5073163;28;20028;-55
2021/12/17 12:31:26;;;;;;;4.10;1.38;;;23.10;90.20;;;;;;5073129;28;20375;-54
2021/12/17 12:34:12;;;;;;;4.10;2.15;;;23.10;90.20;;;;;;5072878;28;20048;-53
2021/12/17 12:37:04;;;;;;;3.42;1.30;;;23.00;90.20;;;;;;5073217;28;20037;-56
2021/12/17 12:39:46;;;;;;;2.72;1.48;;;23.00;90.20;;;;;;5071780;28;20032;-59
2021/12/17 12:42:24;;;;;;;2.78;1.20;;;23.00;90.20;;;;;;5072839;28;20393;-58
2021/12/17 12:44:52;;;;;;;4.65;1.50;;;23.00;90.20;;;;;;5073133;28;20120;-61
2021/12/17 12:47:31;;;;;;;4.05;1.55;;;23.00;90.20;;;;;;5071946;28;20098;-54
2021/12/17 12:50:06;;;;;;;4.70;1.50;;;23.00;90.20;;;;;;5073020;28;20032;-59
2021/12/17 12:52:45;;;;;;;4.10;1.55;;;23.00;90.20;;;;;;5072925;28;20025;-58
2021/12/17 12:55:34;;;;;;;3.28;1.63;;;23.00;90.30;;;;;;5073211;28;20032;-49
2021/12/17 12:58:05;;;;;;;4.00;1.45;;;23.00;90.30;;;;;;5072708;28;20024;-55
2021/12/17 13:00:35;;;;;;;2.83;1.52;;;23.00;90.30;;;;;;5072861;28;20039;-52
2021/12/17 13:03:05;;;;;;;3.17;1.40;;;23.00;90.30;;;;;;5073215;28;20070;-59
2021/12/17 13:05:34;;;;;;;2.83;1.13;;;23.00;90.30;;;;;;5073243;28;20020;-58
2021/12/17 13:08:06;;;;;;;3.45;1.35;;;22.90;90.20;;;;;;5072821;28;20432;-59
2021/12/17 13:10:38;;;;;;;4.30;1.92;;;22.90;90.20;;;;;;5072995;28;20036;-54
2021/12/17 13:13:29;;;;;;;3.90;1.50;;;22.90;90.20;;;;;;5072487;28;20107;-58
2021/12/17 13:16:09;;;;;;;3.25;1.00;;;22.90;90.20;;;;;;5072784;28;20029;-56
2021/12/17 13:21:32;;;;;;;2.42;1.30;;;22.90;90.20;;;;;;5072737;28;20170;-59
2021/12/17 13:24:13;;;;;;;4.00;1.75;;;22.90;90.20;;;;;;5072415;28;20028;-55
2021/12/17 13:26:54;;;;;;;2.67;1.30;;;22.90;90.20;;;;;;5072778;28;20585;-58
2021/12/17 13:29:30;;;;;;;3.35;1.20;;;22.90;90.20;;;;;;5072786;28;20074;-58
2021/12/17 13:32:05;;;;;;;2.90;1.20;;;22.90;90.20;;;;;;5072376;28;20066;-53
2021/12/17 13:34:45;;;;;;;3.63;1.40;;;22.90;90.20;;;;;;5072860;28;20020;-55
2021/12/17 13:37:16;;;;;;;2.92;1.35;;;22.90;90.30;;;;;;5072748;28;20171;-57
2021/12/17 13:39:47;;;;;;;3.13;1.65;;;22.90;90.30;;;;;;5076479;28;20063;-58
2021/12/17 13:42:20;;;;;;;5.22;1.83;;;22.90;90.30;;;;;;5076271;28;20016;-55
2021/12/17 13:45:09;;;;;;;3.63;1.33;;;22.90;90.30;;;;;;5076764;28;20082;-58
2021/12/17 13:47:42;;;;;;;2.30;1.15;;;22.90;90.30;;;;;;5076477;28;20039;-57
2021/12/17 13:50:33;;;;;;;3.38;1.50;;;22.80;90.20;;;;;;5076138;28;20028;-56
2021/12/17 13:53:27;;;;;;;2.85;1.55;;;22.80;90.20;;;;;;5076158;28;20115;-58
2021/12/17 13:55:54;;;;;;;4.35;1.77;;;22.90;90.30;;;;;;5074619;28;20041;-57
2021/12/17 13:58:24;;;;;;;3.20;1.00;;;22.80;90.30;;;;;;5076176;28;20035;-54
2021/12/17 14:00:57;;;;;;;2.63;1.08;;;22.80;90.30;;;;;;5076065;28;20039;-54
2021/12/17 14:03:34;;;;;;;3.25;1.48;;;22.80;90.30;;;;;;5076294;28;20020;-59
2021/12/17 14:06:18;;;;;;;3.00;1.30;;;22.80;90.30;;;;;;5076035;28;20029;-48
2021/12/17 14:08:46;;;;;;;2.05;1.23;;;22.80;90.30;;;;;;5076060;28;20032;-57
2021/12/17 14:11:31;;;;;;;2.97;1.50;;;22.80;90.30;;;;;;5074942;28;20563;-58
2021/12/17 14:14:00;;;;;;;2.85;1.52;;;22.80;90.30;;;;;;5075717;28;20030;-57
2021/12/17 14:16:30;;;;;;;2.35;1.17;;;22.80;90.30;;;;;;5076131;28;20060;-59
2021/12/17 14:19:00;;;;;;;3.25;1.40;;;22.80;90.30;;;;;;5075805;28;20474;-60
2021/12/17 14:21:30;;;;;;;3.75;1.50;;;22.80;90.30;;;;;;5075908;28;20040;-56
2021/12/17 14:23:58;;;;;;;5.15;1.52;;;22.80;90.30;;;;;;5076013;28;20031;-55
2021/12/17 14:26:30;;;;;;;4.35;1.92;;;22.70;90.30;;;;;;5076816;28;20025;-58
2021/12/17 14:29:10;;;;;;;;;;;22.70;90.40;;;;;;5076938;28;20528;-58
2021/12/17 14:31:38;;;;;;;3.40;1.15;;;22.70;90.30;;;;;;5075953;28;19904;-54
2021/12/17 14:34:06;;;;;;;3.40;1.48;;;22.70;90.30;;;;;;5075728;28;20103;-61
2021/12/17 14:36:40;;;;;;;2.03;1.02;;;22.70;90.30;;;;;;5075819;28;20028;-57
2021/12/17 14:39:14;;;;;;;2.92;1.23;;;22.70;90.30;;;;;;5076081;28;20521;-58
2021/12/17 14:41:59;;;;;;;3.72;1.40;;;22.70;90.30;;;;;;5076069;28;20138;-57
2021/12/17 14:47:18;;;;;;;3.38;1.35;;;22.60;90.30;;;;;;5075527;28;20099;-60
2021/12/17 15:03:42;;;;;;;3.60;1.20;;;22.60;90.20;;;;;;5075628;28;20017;-52
2021/12/17 15:06:15;;;;;;;3.78;1.30;;;22.60;90.20;;;;;;5075422;28;20112;-58
2021/12/17 15:08:43;;;;;;;2.50;1.23;;;22.60;90.20;;;;;;5075250;28;20379;-57
2021/12/17 15:11:37;;;;;;;3.00;1.40;;;22.60;90.20;;;;;;5075087;28;20049;-57
2021/12/17 15:14:02;;;;;;;;;;;22.60;90.20;;;;;;5075257;28;20061;-58
2021/12/17 15:16:30;;;;;;;3.60;1.42;;;22.50;90.20;;;;;;5074973;28;19904;-55
2021/12/17 15:18:57;;;;;;;2.55;1.10;;;22.50;90.20;;;;;;5074911;28;20024;-57
2021/12/17 15:21:25;;;;;;;1.90;1.08;;;22.50;90.20;;;;;;5075306;28;20021;-52
2021/12/17 15:23:52;;;;;;;3.50;1.38;;;22.50;90.20;;;;;;5074867;28;20052;-59
2021/12/17 15:26:19;;;;;;;2.95;1.20;;;22.50;90.30;;;;;;5074791;28;20544;-57
2021/12/17 15:28:47;;;;;;;2.85;1.20;;;22.50;90.20;;;;;;5075205;28;20443;-48
2021/12/17 15:31:14;;;;;;;3.60;1.30;;;22.50;90.20;;;;;;5074602;28;20051;-56
2021/12/17 15:33:41;;;;;;;1.88;1.00;;;22.50;90.20;;;;;;5074683;28;20029;-57
2021/12/17 15:36:09;;;;;;;2.72;1.35;;;22.50;90.20;;;;;;5074373;28;20035;-56
2021/12/17 15:38:36;;;;;;;3.65;1.30;;;22.50;90.30;;;;;;5074596;28;20024;-54
2021/12/17 15:41:04;;;;;;;2.15;1.13;;;22.50;90.30;;;;;;5075251;28;20070;-58
2021/12/17 15:43:31;;;;;;;3.28;1.33;;;22.40;90.20;;;;;;5074697;28;20031;-56
2021/12/17 15:45:58;;;;;;;3.65;1.30;;;22.40;90.20;;;;;;5074526;28;20029;-51
2021/12/17 15:48:26;;;;;;;2.67;1.20;;;22.40;90.20;;;;;;5074170;28;20466;-60
2021/12/17 15:50:53;;;;;;;1.98;1.10;;;22.40;90.20;;;;;;5074279;28;20025;-56
2021/12/17 15:53:21;;;;;;;3.22;1.20;;;22.40;90.20;;;;;;5074141;28;20068;-59
2021/12/17 15:55:48;;;;;;;1.38;0.85;;;22.40;90.20;;;;;;5074127;28;20148;-58
2021/12/17 15:58:16;;;;;;;2.65;1.15;;;22.40;90.20;;;;;;5073733;28;20060;-58
2021/12/17 16:00:43;;;;;;;3.95;1.42;;;22.40;90.20;;;;;;5073571;28;20029;-54
2021/12/17 16:03:14;;;;;;;2.60;1.27;;;22.40;90.20;;;;;;5073060;28;20020;-55
2021/12/17 16:05:41;;;;;;;2.50;1.13;;;22.40;90.20;;;;;;5073917;28;20035;-55
2021/12/17 16:08:08;;;;;;;3.15;1.20;;;22.30;90.20;;;;;;5073563;28;20387;-56
2021/12/17 16:20:59;;;;;;;4.07;1.40;;;22.30;90.20;;;;;;5074083;28;20506;-56